createdAt,value
2023-01-12T00:01:42.176Z,93.75
2023-01-12T00:04:08.918Z,93.67
2023-01-12T00:06:35.525Z,93.89
2023-01-12T00:09:04.105Z,93.24
2023-01-12T00:11:30.879Z,93.64
2023-01-12T00:13:58.057Z,93.65
2023-01-12T00:16:34.929Z,93.30
2023-01-12T00:19:10.919Z,93.83
2023-01-12T00:22:01.752Z,93.73
2023-01-12T00:24:37.283Z,93.16
2023-01-12T00:27:09.530Z,93.58
2023-01-12T00:29:36.626Z,93.06
2023-01-12T00:32:04.615Z,93.36
2023-01-12T00:34:31.130Z,93.84
2023-01-12T00:37:00.431Z,94.13
2023-01-12T00:39:26.866Z,94.02
2023-01-12T00:42:11.787Z,94.28
2023-01-12T00:44:58.017Z,93.81
2023-01-12T00:47:24.470Z,93.93
2023-01-12T00:49:51.153Z,93.84
2023-01-12T00:52:30.018Z,93.48
2023-01-12T00:54:56.815Z,93.05
2023-01-12T00:57:23.301Z,92.72
2023-01-12T00:59:49.803Z,93.15
2023-01-12T01:02:16.371Z,92.85
2023-01-12T01:04:42.971Z,92.79
2023-01-12T01:07:09.443Z,92.52
2023-01-12T01:09:35.901Z,92.45
2023-01-12T01:12:04.436Z,92.75
2023-01-12T01:14:30.937Z,92.31
2023-01-12T01:16:57.340Z,92.04
2023-01-12T01:19:24.239Z,92.52
2023-01-12T01:21:50.686Z,92.13
2023-01-12T01:24:17.340Z,92.42
2023-01-12T01:26:44.228Z,91.89
2023-01-12T01:29:11.155Z,91.74
2023-01-12T01:31:37.880Z,92.05
2023-01-12T01:34:04.428Z,91.57
2023-01-12T01:36:30.888Z,91.73
2023-01-12T01:38:57.401Z,91.46
2023-01-12T01:41:28.992Z,90.92
2023-01-12T01:44:03.780Z,90.88
2023-01-12T01:46:50.577Z,90.56
2023-01-12T01:49:33.883Z,90.82
2023-01-12T01:52:14.090Z,89.46
2023-01-12T01:54:46.759Z,89.53
2023-01-12T01:57:15.487Z,89.72
2023-01-12T01:59:48.839Z,89.64
2023-01-12T02:02:17.085Z,88.85
2023-01-12T02:04:44.301Z,89.97
2023-01-12T02:07:11.012Z,89.34
2023-01-12T02:09:38.318Z,88.67
2023-01-12T02:12:23.983Z,89.59
2023-01-12T02:15:10.588Z,89.94
2023-01-12T02:18:11.489Z,89.86
2023-01-12T02:21:18.519Z,90.40
2023-01-12T02:24:23.466Z,90.19
2023-01-12T02:27:03.787Z,89.72
2023-01-12T02:29:52.253Z,90.02
2023-01-12T02:32:37.183Z,90.78
2023-01-12T02:35:24.866Z,91.05
2023-01-12T02:38:00.789Z,90.70
2023-01-12T02:40:48.003Z,91.50
2023-01-12T02:43:28.645Z,92.17
2023-01-12T02:46:00.314Z,91.42
2023-01-12T02:49:04.882Z,91.23
2023-01-12T02:51:49.895Z,92.75
2023-01-12T02:54:19.800Z,91.41
2023-01-12T02:56:52.134Z,92.16
2023-01-12T02:59:24.570Z,92.35
2023-01-12T03:01:53.622Z,93.40
2023-01-12T03:04:21.795Z,93.57
2023-01-12T03:07:19.887Z,92.72
2023-01-12T03:09:54.353Z,92.82
2023-01-12T03:12:28.880Z,93.30
2023-01-12T03:14:58.526Z,93.37
2023-01-12T03:17:38.021Z,93.40
2023-01-12T03:20:17.333Z,93.38
2023-01-12T03:22:47.435Z,93.29
2023-01-12T03:25:17.318Z,93.76
2023-01-12T03:27:48.542Z,92.35
2023-01-12T03:30:20.791Z,91.41
2023-01-12T03:32:48.137Z,93.21
2023-01-12T03:35:14.735Z,92.53
2023-01-12T03:37:54.113Z,91.69
2023-01-12T03:40:43.128Z,91.64
2023-01-12T03:43:17.674Z,91.60
2023-01-12T03:45:58.758Z,90.94
2023-01-12T03:48:38.615Z,90.18
2023-01-12T03:51:12.387Z,90.73
2023-01-12T03:53:40.527Z,91.00
2023-01-12T03:56:10.950Z,90.49
2023-01-12T03:58:37.723Z,89.71
2023-01-12T04:01:05.826Z,89.96
2023-01-12T04:03:32.510Z,89.51
2023-01-12T04:05:59.002Z,89.69
2023-01-12T04:08:25.407Z,89.68
2023-01-12T04:10:51.816Z,89.75
2023-01-12T04:13:18.257Z,89.50
2023-01-12T04:15:44.675Z,89.49
2023-01-12T04:18:12.541Z,89.16
2023-01-12T04:20:39.781Z,88.40
2023-01-12T04:23:07.178Z,88.98
2023-01-12T04:25:34.146Z,88.56
2023-01-12T04:28:04.196Z,88.73
2023-01-12T04:30:35.231Z,88.16
2023-01-12T04:33:08.121Z,87.80
2023-01-12T04:35:35.028Z,87.88
2023-01-12T04:38:06.272Z,87.90
2023-01-12T04:40:32.685Z,88.59
2023-01-12T04:43:02.027Z,88.39
2023-01-12T04:45:33.534Z,88.02
2023-01-12T04:48:06.523Z,87.15
2023-01-12T04:50:33.540Z,87.48
2023-01-12T04:53:02.862Z,87.78
2023-01-12T04:55:29.416Z,87.87
2023-01-12T04:57:57.008Z,87.21
2023-01-12T05:00:23.625Z,86.14
2023-01-12T05:02:50.249Z,87.05
2023-01-12T05:05:16.852Z,86.80
2023-01-12T05:08:03.306Z,86.73
2023-01-12T05:10:30.286Z,86.58
2023-01-12T05:12:56.816Z,86.42
2023-01-12T05:15:23.902Z,86.35
2023-01-12T05:17:50.386Z,85.93
2023-01-12T05:20:17.067Z,86.40
2023-01-12T05:22:43.539Z,85.57
2023-01-12T05:25:10.757Z,85.35
2023-01-12T05:27:37.167Z,85.97
2023-01-12T05:30:03.969Z,85.35
2023-01-12T05:32:30.454Z,85.29
2023-01-12T05:34:56.916Z,85.28
2023-01-12T05:37:23.353Z,85.07
2023-01-12T05:39:49.793Z,85.00
2023-01-12T05:42:34.752Z,84.68
2023-01-12T05:45:01.154Z,83.92
2023-01-12T05:47:28.342Z,83.06
2023-01-12T05:49:54.743Z,82.91
2023-01-12T05:52:21.190Z,83.23
2023-01-12T05:54:47.656Z,83.49
2023-01-12T05:57:14.081Z,83.45
2023-01-12T05:59:40.475Z,82.48
2023-01-12T06:02:06.982Z,82.50
2023-01-12T06:04:33.459Z,82.63
2023-01-12T06:06:59.915Z,82.40
2023-01-12T06:09:26.319Z,82.55
2023-01-12T06:12:11.484Z,82.11
2023-01-12T06:14:37.989Z,81.82
2023-01-12T06:17:04.942Z,82.07
2023-01-12T06:19:31.460Z,82.66
2023-01-12T06:21:59.605Z,82.67
2023-01-12T06:24:28.163Z,82.19
2023-01-12T06:26:55.186Z,82.24
2023-01-12T06:29:21.666Z,82.24
2023-01-12T06:31:48.113Z,82.26
2023-01-12T06:34:14.542Z,81.35
2023-01-12T06:36:41.069Z,81.53
2023-01-12T06:39:07.821Z,81.99
2023-01-12T06:41:53.346Z,81.96
2023-01-12T06:44:19.965Z,81.94
2023-01-12T06:46:46.541Z,81.82
2023-01-12T06:49:12.993Z,82.35
2023-01-12T06:51:39.499Z,82.26
2023-01-12T06:54:05.918Z,82.12
2023-01-12T06:56:32.684Z,81.83
2023-01-12T06:58:59.139Z,81.55
2023-01-12T07:01:27.120Z,81.23
2023-01-12T07:03:54.149Z,81.44
2023-01-12T07:06:20.659Z,81.42
2023-01-12T07:08:47.040Z,81.70
2023-01-12T07:11:15.003Z,82.18
2023-01-12T07:13:41.440Z,82.15
2023-01-12T07:16:08.142Z,81.87
2023-01-12T07:18:34.868Z,81.92
2023-01-12T07:21:09.268Z,82.06
2023-01-12T07:23:37.720Z,81.95
2023-01-12T07:26:04.416Z,81.88
2023-01-12T07:28:31.581Z,81.91
2023-01-12T07:31:05.824Z,80.71
2023-01-12T07:33:39.516Z,81.68
2023-01-12T07:36:06.336Z,81.29
2023-01-12T07:38:33.070Z,81.44
2023-01-12T07:41:01.157Z,80.96
2023-01-12T07:43:28.050Z,81.47
2023-01-12T07:45:58.403Z,80.77
2023-01-12T07:48:26.664Z,81.11
2023-01-12T07:50:53.709Z,81.41
2023-01-12T07:53:23.641Z,81.16
2023-01-12T07:55:50.216Z,81.49
2023-01-12T07:58:16.813Z,81.32
2023-01-12T08:00:43.330Z,80.85
2023-01-12T08:03:12.327Z,80.80
2023-01-12T08:05:39.280Z,81.47
2023-01-12T08:08:06.655Z,81.25
2023-01-12T08:10:33.484Z,81.04
2023-01-12T08:12:59.992Z,81.66
2023-01-12T08:15:28.821Z,82.56
2023-01-12T08:18:00.988Z,78.09
2023-01-12T08:20:32.261Z,78.77
2023-01-12T08:23:16.084Z,79.55
2023-01-12T08:25:45.765Z,79.16
2023-01-12T08:28:17.387Z,79.17
2023-01-12T08:30:47.345Z,79.40
2023-01-12T08:33:14.854Z,79.52
2023-01-12T08:35:41.969Z,79.64
2023-01-12T08:38:08.405Z,79.26
2023-01-12T08:40:53.205Z,79.13
2023-01-12T08:43:39.564Z,79.03
2023-01-12T08:46:09.083Z,79.13
2023-01-12T08:48:39.177Z,79.40
2023-01-12T08:51:07.929Z,79.33
2023-01-12T08:53:35.376Z,79.42
2023-01-12T08:56:02.282Z,79.04
2023-01-12T08:58:28.943Z,78.46
2023-01-12T09:00:55.728Z,78.09
2023-01-12T09:03:22.299Z,78.84
2023-01-12T09:05:48.682Z,78.17
2023-01-12T09:08:17.978Z,78.34
2023-01-12T09:10:44.409Z,78.01
2023-01-12T09:13:15.549Z,77.74
2023-01-12T09:15:48.316Z,77.66
2023-01-12T09:18:20.249Z,77.19
2023-01-12T09:20:46.916Z,76.78
2023-01-12T09:23:16.105Z,76.96
2023-01-12T09:25:42.522Z,77.05
2023-01-12T09:28:08.962Z,76.99
2023-01-12T09:30:35.384Z,76.87
2023-01-12T09:33:01.860Z,77.72
2023-01-12T09:35:28.274Z,77.21
2023-01-12T09:37:54.645Z,77.38
2023-01-12T09:40:21.056Z,76.95
2023-01-12T09:43:09.018Z,76.53
2023-01-12T09:45:53.856Z,76.09
2023-01-12T09:48:23.216Z,75.78
2023-01-12T09:51:11.913Z,75.53
2023-01-12T09:53:41.148Z,75.61
2023-01-12T09:56:37.894Z,75.40
2023-01-12T09:59:31.198Z,74.99
2023-01-12T10:01:57.781Z,75.43
2023-01-12T10:04:25.003Z,74.36
2023-01-12T10:06:51.988Z,74.17
2023-01-12T10:09:20.246Z,74.03
2023-01-12T10:12:12.958Z,73.88
2023-01-12T10:14:48.955Z,73.45
2023-01-12T10:17:38.617Z,73.71
2023-01-12T10:20:08.473Z,73.55
2023-01-12T10:22:53.665Z,72.65
2023-01-12T10:25:37.752Z,72.20
2023-01-12T10:28:08.813Z,72.10
2023-01-12T10:30:40.248Z,72.02
2023-01-12T10:33:15.992Z,71.91
2023-01-12T10:35:50.972Z,71.68
2023-01-12T10:38:32.466Z,71.52
2023-01-12T10:41:14.256Z,71.95
2023-01-12T10:43:42.555Z,71.69
2023-01-12T10:46:19.293Z,72.58
2023-01-12T10:48:48.332Z,72.87
2023-01-12T10:51:30.048Z,73.18
2023-01-12T10:54:10.735Z,73.26
2023-01-12T10:56:44.569Z,73.13
2023-01-12T10:59:14.376Z,75.10
2023-01-12T11:01:46.742Z,76.96
2023-01-12T11:04:16.614Z,79.06
2023-01-12T11:06:45.449Z,78.51
2023-01-12T11:09:27.242Z,79.60
2023-01-12T11:12:01.813Z,81.01
2023-01-12T11:14:31.525Z,82.06
2023-01-12T11:17:30.652Z,82.25
2023-01-12T11:20:00.924Z,83.96
2023-01-12T11:22:32.030Z,83.98
2023-01-12T11:25:07.273Z,84.56
2023-01-12T11:27:43.192Z,85.61
2023-01-12T11:30:29.747Z,86.03
2023-01-12T11:33:09.074Z,86.46
2023-01-12T11:36:03.233Z,86.05
2023-01-12T11:38:38.907Z,86.65
2023-01-12T11:41:10.306Z,87.48
2023-01-12T11:43:55.874Z,87.69
2023-01-12T11:46:42.463Z,87.39
2023-01-12T11:49:53.387Z,87.35
2023-01-12T11:52:19.857Z,86.83
2023-01-12T11:54:46.426Z,86.29
2023-01-12T11:57:44.044Z,87.70
2023-01-12T12:00:36.141Z,87.05
2023-01-12T12:03:31.956Z,86.19
2023-01-12T12:06:22.665Z,85.11
2023-01-12T12:09:14.979Z,84.51
2023-01-12T12:11:57.527Z,84.54
2023-01-12T12:14:54.358Z,83.41
2023-01-12T12:17:48.960Z,83.30
2023-01-12T12:20:33.057Z,83.34
2023-01-12T12:23:04.761Z,81.83
2023-01-12T12:25:56.000Z,81.94
2023-01-12T12:28:31.697Z,81.56
2023-01-12T12:31:13.744Z,81.13
2023-01-12T12:33:52.118Z,81.13
2023-01-12T12:36:30.328Z,80.90
2023-01-12T12:39:18.597Z,81.44
2023-01-12T12:42:14.281Z,79.91
2023-01-12T12:45:09.843Z,79.63
2023-01-12T12:47:42.363Z,79.66
2023-01-12T12:50:23.849Z,78.68
2023-01-12T12:53:05.941Z,77.68
2023-01-12T12:55:32.763Z,77.31
2023-01-12T12:58:05.210Z,77.42
2023-01-12T13:00:42.313Z,78.04
2023-01-12T13:03:10.462Z,77.62
2023-01-12T13:05:43.070Z,77.57
2023-01-12T13:08:22.654Z,77.24
2023-01-12T13:10:57.557Z,77.67
2023-01-12T13:13:33.624Z,77.58
2023-01-12T13:16:15.439Z,77.88
2023-01-12T13:19:03.185Z,76.49
2023-01-12T13:21:38.285Z,76.41
2023-01-12T13:24:11.304Z,76.21
2023-01-12T13:26:45.364Z,76.13
2023-01-12T13:29:24.212Z,76.19
2023-01-12T13:31:52.316Z,75.89
2023-01-12T13:34:37.563Z,77.23
2023-01-12T13:37:26.114Z,76.21
2023-01-12T13:40:04.212Z,75.96
2023-01-12T13:42:49.274Z,75.68
2023-01-12T13:45:21.100Z,75.43
2023-01-12T13:47:50.132Z,75.07
2023-01-12T13:50:23.033Z,75.46
2023-01-12T13:53:05.015Z,75.30
2023-01-12T13:55:33.474Z,75.63
2023-01-12T13:58:04.257Z,75.99
2023-01-12T14:00:35.050Z,75.53
2023-01-12T14:03:04.405Z,75.72
2023-01-12T14:05:51.547Z,76.02
2023-01-12T14:08:51.096Z,75.76
2023-01-12T14:11:35.452Z,75.16
2023-01-12T14:14:42.595Z,75.34
2023-01-12T14:17:46.573Z,75.50
2023-01-12T14:20:24.678Z,76.16
2023-01-12T14:23:15.603Z,75.88
2023-01-12T14:25:42.917Z,75.86
2023-01-12T14:28:17.908Z,75.98
2023-01-12T14:30:51.893Z,75.85
2023-01-12T14:33:24.054Z,75.84
2023-01-12T14:35:55.296Z,75.36
2023-01-12T14:38:26.364Z,75.59
2023-01-12T14:41:06.761Z,75.38
2023-01-12T14:43:54.232Z,75.68
2023-01-12T14:46:33.664Z,75.71
2023-01-12T14:49:19.828Z,75.58
2023-01-12T14:51:53.787Z,75.33
2023-01-12T14:54:31.536Z,75.56
2023-01-12T14:57:05.595Z,74.90
2023-01-12T14:59:35.087Z,74.97
2023-01-12T15:02:13.982Z,75.09
2023-01-12T15:05:05.191Z,75.36
2023-01-12T15:07:41.536Z,75.48
2023-01-12T15:10:10.814Z,75.35
2023-01-12T15:12:48.260Z,75.29
2023-01-12T15:15:25.029Z,75.14
2023-01-12T15:18:12.501Z,75.59
2023-01-12T15:21:00.159Z,75.28
2023-01-12T15:23:53.394Z,75.15
2023-01-12T15:26:20.759Z,74.78
2023-01-12T15:28:50.144Z,75.00
2023-01-12T15:31:19.486Z,75.05
2023-01-12T15:33:46.542Z,74.98
2023-01-12T15:36:14.015Z,75.06
2023-01-12T15:38:40.531Z,75.28
2023-01-12T15:41:07.175Z,74.92
2023-01-12T15:43:33.547Z,75.05
2023-01-12T15:46:00.347Z,75.18
2023-01-12T15:48:27.021Z,75.36
2023-01-12T15:50:53.673Z,75.49
2023-01-12T15:53:25.339Z,75.38
2023-01-12T15:55:51.863Z,75.39
2023-01-12T15:58:19.570Z,74.90
2023-01-12T16:00:46.752Z,75.50
2023-01-12T16:03:38.202Z,75.19
2023-01-12T16:06:01.092Z,75.33
2023-01-12T16:08:27.998Z,75.30
2023-01-12T16:11:09.803Z,75.61
2023-01-12T16:13:39.076Z,74.61
2023-01-12T16:16:06.169Z,75.01
2023-01-12T16:18:32.761Z,75.10
2023-01-12T16:21:00.012Z,75.26
2023-01-12T16:23:27.360Z,75.04
2023-01-12T16:25:58.468Z,75.38
2023-01-12T16:28:26.369Z,75.48
2023-01-12T16:30:55.022Z,76.13
2023-01-12T16:33:22.073Z,76.05
2023-01-12T16:35:49.509Z,76.25
2023-01-12T16:38:18.708Z,75.10
2023-01-12T16:40:45.416Z,75.44
2023-01-12T16:43:12.392Z,75.00
2023-01-12T16:45:42.691Z,75.39
2023-01-12T16:48:09.348Z,75.41
2023-01-12T16:50:39.858Z,75.22
2023-01-12T16:53:08.382Z,75.71
2023-01-12T16:55:37.860Z,75.38
2023-01-12T16:58:05.308Z,75.83
2023-01-12T17:00:33.586Z,76.00
2023-01-12T17:03:02.554Z,76.03
2023-01-12T17:05:30.036Z,76.21
2023-01-12T17:07:56.849Z,76.22
2023-01-12T17:10:23.829Z,76.00
2023-01-12T17:12:56.443Z,75.98
2023-01-12T17:15:26.215Z,75.83
2023-01-12T17:17:53.788Z,76.30
2023-01-12T17:20:20.854Z,76.95
2023-01-12T17:22:48.009Z,76.90
2023-01-12T17:25:15.811Z,77.32
2023-01-12T17:27:42.903Z,76.24
2023-01-12T17:30:10.218Z,76.27
2023-01-12T17:32:39.398Z,76.11
2023-01-12T17:35:09.278Z,76.55
2023-01-12T17:37:36.689Z,76.67
2023-01-12T17:40:03.950Z,76.86
2023-01-12T17:42:49.378Z,76.67
2023-01-12T17:45:16.055Z,76.58
2023-01-12T17:47:42.549Z,76.70
2023-01-12T17:50:09.904Z,75.94
2023-01-12T17:52:36.628Z,75.93
2023-01-12T17:55:03.123Z,76.50
2023-01-12T17:57:33.400Z,75.64
2023-01-12T18:00:00.062Z,76.33
2023-01-12T18:02:26.626Z,76.40
2023-01-12T18:04:53.130Z,76.62
2023-01-12T18:07:19.600Z,76.81
2023-01-12T18:09:46.173Z,76.64
2023-01-12T18:12:12.914Z,76.07
2023-01-12T18:14:39.303Z,76.93
2023-01-12T18:17:06.005Z,76.96
2023-01-12T18:19:33.368Z,76.59
2023-01-12T18:22:05.827Z,76.42
2023-01-12T18:24:36.271Z,76.82
2023-01-12T18:27:04.430Z,77.80
2023-01-12T18:29:30.885Z,77.49
2023-01-12T18:31:57.262Z,78.07
2023-01-12T18:34:23.998Z,78.04
2023-01-12T18:36:50.472Z,77.98
2023-01-12T18:39:19.339Z,78.04
2023-01-12T18:42:04.374Z,77.99
2023-01-12T18:44:32.565Z,78.08
2023-01-12T18:47:19.213Z,77.52
2023-01-12T18:49:49.705Z,77.50
2023-01-12T18:52:37.022Z,77.40
2023-01-12T18:55:04.830Z,76.88
2023-01-12T18:57:32.252Z,76.86
2023-01-12T19:00:14.898Z,76.81
2023-01-12T19:02:44.278Z,76.37
2023-01-12T19:05:14.649Z,76.57
2023-01-12T19:07:59.842Z,76.22
2023-01-12T19:10:27.990Z,76.60
2023-01-12T19:13:14.509Z,76.15
2023-01-12T19:16:00.478Z,76.47
2023-01-12T19:18:27.968Z,76.20
2023-01-12T19:21:13.194Z,76.09
2023-01-12T19:23:59.560Z,76.14
2023-01-12T19:26:57.975Z,75.74
2023-01-12T19:29:24.729Z,75.60
2023-01-12T19:31:51.333Z,75.47
2023-01-12T19:34:18.908Z,75.17
2023-01-12T19:36:45.344Z,75.27
2023-01-12T19:39:12.836Z,75.56
2023-01-12T19:41:57.872Z,75.30
2023-01-12T19:44:24.466Z,75.08
2023-01-12T19:46:51.011Z,74.93
2023-01-12T19:49:18.495Z,75.62
2023-01-12T19:51:48.085Z,76.15
2023-01-12T19:54:16.760Z,76.78
2023-01-12T19:56:46.567Z,77.13
2023-01-12T19:59:13.666Z,78.53
2023-01-12T20:01:40.197Z,79.53
2023-01-12T20:04:06.770Z,80.73
2023-01-12T20:06:33.397Z,82.24
2023-01-12T20:09:02.318Z,83.23
2023-01-12T20:11:29.669Z,84.05
2023-01-12T20:13:56.120Z,85.34
2023-01-12T20:16:32.267Z,85.96
2023-01-12T20:18:59.595Z,88.21
2023-01-12T20:21:31.286Z,88.35
2023-01-12T20:23:57.675Z,89.28
2023-01-12T20:26:25.170Z,90.01
2023-01-12T20:28:52.901Z,90.57
2023-01-12T20:31:20.660Z,90.47
2023-01-12T20:33:47.881Z,91.86
2023-01-12T20:36:16.399Z,93.77
2023-01-12T20:38:43.941Z,93.60
2023-01-12T20:41:11.155Z,94.11
2023-01-12T20:43:39.142Z,94.48
2023-01-12T20:46:10.911Z,94.83
2023-01-12T20:48:40.136Z,95.91
2023-01-12T20:51:12.725Z,95.44
2023-01-12T20:53:39.881Z,95.75
2023-01-12T20:56:07.073Z,95.67
2023-01-12T20:58:33.911Z,96.73
2023-01-12T21:01:00.673Z,96.53
2023-01-12T21:03:27.185Z,96.28
2023-01-12T21:05:53.884Z,96.99
2023-01-12T21:08:20.517Z,96.66
2023-01-12T21:10:50.343Z,97.26
2023-01-12T21:13:17.699Z,98.06
2023-01-12T21:15:45.138Z,98.43
2023-01-12T21:18:11.907Z,99.08
2023-01-12T21:20:43.083Z,99.04
2023-01-12T21:23:09.752Z,99.70
2023-01-12T21:25:41.335Z,99.18
2023-01-12T21:28:08.033Z,99.55
2023-01-12T21:30:35.119Z,99.92
2023-01-12T21:33:01.563Z,99.87
2023-01-12T21:35:28.094Z,99.76
2023-01-12T21:37:54.774Z,99.66
2023-01-12T21:40:21.476Z,99.73
2023-01-12T21:43:06.329Z,100.00
2023-01-12T21:45:38.173Z,99.77
2023-01-12T21:48:04.834Z,99.26
2023-01-12T21:50:32.530Z,99.93
2023-01-12T21:52:59.696Z,98.84
2023-01-12T21:55:26.451Z,99.17
2023-01-12T21:57:55.014Z,99.91
2023-01-12T22:00:22.580Z,99.96
2023-01-12T22:02:51.155Z,99.98
2023-01-12T22:05:18.332Z,99.82
2023-01-12T22:07:45.063Z,99.85
2023-01-12T22:10:20.781Z,100.00
2023-01-12T22:12:50.766Z,99.49
2023-01-12T22:15:17.815Z,100.00
2023-01-12T22:17:44.610Z,100.00
2023-01-12T22:20:12.564Z,100.00
2023-01-12T22:22:39.108Z,100.00
2023-01-12T22:25:07.485Z,100.00
2023-01-12T22:27:37.579Z,100.00
2023-01-12T22:30:06.124Z,100.00
2023-01-12T22:32:33.117Z,100.00
2023-01-12T22:34:59.677Z,100.00
2023-01-12T22:37:27.461Z,100.00
2023-01-12T22:39:55.027Z,100.00
2023-01-12T22:42:42.869Z,100.00
2023-01-12T22:45:09.958Z,99.93
2023-01-12T22:47:47.543Z,99.96
2023-01-12T22:50:14.840Z,100.00
2023-01-12T22:52:41.838Z,100.00
2023-01-12T22:55:09.079Z,100.00
2023-01-12T22:57:35.536Z,100.00
2023-01-12T23:00:05.345Z,100.00
2023-01-12T23:02:50.594Z,100.00
2023-01-12T23:05:17.813Z,100.00
2023-01-12T23:07:44.456Z,100.00
2023-01-12T23:10:11.013Z,100.00
2023-01-12T23:12:37.529Z,100.00
2023-01-12T23:15:04.783Z,100.00
2023-01-12T23:17:32.848Z,100.00
2023-01-12T23:19:59.296Z,100.00
2023-01-12T23:22:25.733Z,100.00
2023-01-12T23:24:52.181Z,100.00
2023-01-12T23:27:18.665Z,100.00
2023-01-12T23:29:47.007Z,100.00
2023-01-12T23:32:13.657Z,100.00
2023-01-12T23:34:40.210Z,100.00
2023-01-12T23:37:06.754Z,100.00
2023-01-12T23:39:33.293Z,100.00
2023-01-12T23:41:59.766Z,100.00
2023-01-12T23:44:26.231Z,100.00
2023-01-12T23:46:52.954Z,100.00
2023-01-12T23:49:19.443Z,99.93
2023-01-12T23:51:45.917Z,99.41
2023-01-12T23:54:16.847Z,99.50
2023-01-12T23:56:43.807Z,99.04
2023-01-12T23:59:10.251Z,99.10
